Time;durP1;ratioP1;P1;durP2;ratioP2;P2;SDS_P1;SDS_P2;PMS_P1;PMS_P2;Temp;Humidity;BMP_temperature;BMP_pressure;BME280_temperature;BME280_humidity;BME280_pressure;Samples;Min_cycle;Max_cycle;Signal;HPM_P1;HPM_P2
2024/01/26 00:00:48;;;;;;;0.20;0.20;;;;;;;5.95;100.00;97370.00;5034793;28;20056;-74
2024/01/26 00:03:34;;;;;;;0.20;0.20;;;;;;;5.90;100.00;97368.91;5034525;28;20498;-74
2024/01/26 00:06:19;;;;;;;0.15;0.15;;;;;;;5.92;100.00;97366.94;5032692;28;20051;-76
2024/01/26 00:09:12;;;;;;;0.20;0.20;;;;;;;5.97;100.00;97362.66;5037725;28;20073;-74
2024/01/26 00:11:58;;;;;;;0.20;0.20;;;;;;;5.93;100.00;97357.94;5034711;28;20065;-77
2024/01/26 00:14:44;;;;;;;0.20;0.20;;;;;;;5.93;100.00;97352.63;5035263;28;20049;-74
2024/01/26 00:17:30;;;;;;;0.15;0.15;;;;;;;5.99;100.00;97362.44;5033244;28;20048;-75
2024/01/26 00:20:15;;;;;;;0.20;0.20;;;;;;;5.94;100.00;97355.06;5037956;28;20090;-75
2024/01/26 00:23:01;;;;;;;0.20;0.20;;;;;;;5.97;100.00;97367.97;5034802;28;20113;-73
2024/01/26 00:25:47;;;;;;;0.30;0.30;;;;;;;6.01;100.00;97355.13;5031271;28;20407;-77
2024/01/26 00:28:33;;;;;;;0.13;0.13;;;;;;;6.03;100.00;97367.19;5038839;28;20495;-73
2024/01/26 00:31:19;;;;;;;0.15;0.15;;;;;;;6.01;100.00;97353.28;5033360;28;20160;-75
2024/01/26 00:34:05;;;;;;;0.20;0.20;;;;;;;6.05;100.00;97346.53;5036252;28;20040;-74
2024/01/26 00:36:50;;;;;;;0.20;0.20;;;;;;;6.07;100.00;97354.28;5034622;28;20037;-74
2024/01/26 00:39:36;;;;;;;0.20;0.20;;;;;;;6.10;100.00;97359.22;5036553;28;20057;-72
2024/01/26 00:42:24;;;;;;;0.20;0.20;;;;;;;6.11;100.00;97351.06;5035874;28;20127;-73
2024/01/26 00:45:10;;;;;;;0.20;0.20;;;;;;;6.13;100.00;97356.16;5035994;28;20041;-75
2024/01/26 00:47:56;;;;;;;0.20;0.20;;;;;;;6.11;100.00;97342.28;5035881;28;20041;-73
2024/01/26 00:50:42;;;;;;;0.20;0.20;;;;;;;6.09;100.00;97339.81;5033537;28;20285;-76
2024/01/26 00:53:28;;;;;;;0.20;0.20;;;;;;;6.10;100.00;97340.63;5036836;28;20144;-73
2024/01/26 00:56:16;;;;;;;0.20;0.20;;;;;;;6.12;100.00;97336.75;5036003;28;20037;-75
2024/01/26 00:59:02;;;;;;;0.20;0.20;;;;;;;6.17;100.00;97330.84;5020606;28;20559;-74
2024/01/26 01:01:48;;;;;;;0.10;0.10;;;;;;;6.19;100.00;97331.47;5033156;28;20053;-73
2024/01/26 01:04:35;;;;;;;0.20;0.20;;;;;;;6.13;100.00;97333.06;5036122;28;20069;-73
2024/01/26 01:07:21;;;;;;;0.10;0.10;;;;;;;6.14;100.00;97333.88;5035783;28;20045;-76
2024/01/26 01:10:07;;;;;;;0.17;0.17;;;;;;;6.17;100.00;97317.56;5034895;28;20056;-72
2024/01/26 01:12:53;;;;;;;0.20;0.20;;;;;;;6.19;100.00;97315.50;5037302;28;20136;-74
2024/01/26 01:15:40;;;;;;;0.20;0.20;;;;;;;6.19;100.00;97307.53;5037050;28;20045;-73
2024/01/26 01:18:26;;;;;;;0.20;0.20;;;;;;;6.19;100.00;97312.03;5031348;28;20037;-74
2024/01/26 01:21:12;;;;;;;0.20;0.20;;;;;;;6.14;100.00;97308.13;5036354;28;20123;-73
2024/01/26 01:23:58;;;;;;;0.20;0.20;;;;;;;6.15;100.00;97322.25;5033572;28;20679;-73
2024/01/26 01:26:44;;;;;;;0.20;0.20;;;;;;;6.19;100.00;97320.00;5013924;28;20469;-74
2024/01/26 01:29:29;;;;;;;0.20;0.20;;;;;;;6.18;100.00;97313.88;5034121;28;20065;-73
2024/01/26 01:32:15;;;;;;;0.20;0.20;;;;;;;6.21;100.00;97304.69;5032333;28;20063;-72
2024/01/26 01:35:02;;;;;;;0.30;0.30;;;;;;;6.20;100.00;97314.50;5033291;28;20801;-74
2024/01/26 01:37:48;;;;;;;0.20;0.20;;;;;;;6.25;100.00;97312.06;5036986;28;20107;-74
2024/01/26 01:40:34;;;;;;;0.20;0.20;;;;;;;6.28;100.00;97316.97;5037749;28;20560;-74
2024/01/26 01:43:19;;;;;;;0.20;0.20;;;;;;;6.29;100.00;97305.31;5035262;28;20056;-76
2024/01/26 01:46:06;;;;;;;0.20;0.20;;;;;;;6.27;100.00;97296.72;5013708;28;20044;-72
2024/01/26 01:48:52;;;;;;;0.20;0.20;;;;;;;6.29;100.00;97300.00;5033418;28;20124;-75
2024/01/26 01:51:40;;;;;;;0.13;0.13;;;;;;;6.27;100.00;97302.03;5022030;28;20497;-75
2024/01/26 01:54:30;;;;;;;0.10;0.10;;;;;;;6.29;100.00;97289.38;5033264;28;20605;-72
2024/01/26 01:57:19;;;;;;;0.20;0.20;;;;;;;6.30;100.00;97299.00;5050761;28;20300;-75
2024/01/26 02:00:05;;;;;;;0.20;0.20;;;;;;;6.33;100.00;97297.78;5007744;28;20263;-72
2024/01/26 02:02:52;;;;;;;0.20;0.20;;;;;;;6.34;100.00;97294.91;5032516;28;20367;-72
2024/01/26 02:05:41;;;;;;;0.20;0.20;;;;;;;6.39;100.00;97292.47;5013883;28;20040;-75
2024/01/26 02:08:27;;;;;;;0.20;0.20;;;;;;;6.43;100.00;97293.69;5036285;28;20040;-75
2024/01/26 02:11:12;;;;;;;0.20;0.20;;;;;;;6.38;100.00;97296.16;5034063;28;20243;-75
2024/01/26 02:13:59;;;;;;;0.20;0.20;;;;;;;6.39;100.00;97296.97;5034295;28;20462;-76
2024/01/26 02:16:55;;;;;;;0.20;0.20;;;;;;;6.41;100.00;97303.72;5036410;28;20067;-73
2024/01/26 02:19:41;;;;;;;0.20;0.20;;;;;;;6.43;100.00;97298.19;5036204;28;20051;-76
2024/01/26 02:22:27;;;;;;;0.20;0.20;;;;;;;6.49;100.00;97301.91;5035429;28;20049;-76
2024/01/26 02:25:13;;;;;;;0.20;0.20;;;;;;;6.53;100.00;97303.13;5032293;28;20076;-73
2024/01/26 02:27:58;;;;;;;0.20;0.20;;;;;;;6.50;100.00;97298.22;5037170;28;20057;-73
2024/01/26 02:30:47;;;;;;;0.20;0.20;;;;;;;6.49;100.00;97294.75;5033748;28;20399;-72
2024/01/26 02:33:33;;;;;;;0.20;0.20;;;;;;;6.49;100.00;97280.63;5021515;28;20230;-73
2024/01/26 02:36:18;;;;;;;0.20;0.20;;;;;;;6.53;100.00;97287.16;5034848;28;20045;-76
2024/01/26 02:39:05;;;;;;;0.20;0.20;;;;;;;6.59;100.00;97287.16;5028152;28;20593;-74
2024/01/26 02:41:51;;;;;;;0.30;0.30;;;;;;;6.55;100.00;97293.13;5034688;28;20037;-75
2024/01/26 02:44:37;;;;;;;0.20;0.20;;;;;;;6.50;100.00;97296.38;5033672;28;20051;-75
2024/01/26 02:47:22;;;;;;;0.20;0.20;;;;;;;6.50;100.00;97295.56;5050841;28;20060;-74
2024/01/26 02:50:09;;;;;;;0.20;0.20;;;;;;;6.50;100.00;97293.72;5035327;28;20102;-73
2024/01/26 02:52:55;;;;;;;0.20;0.20;;;;;;;6.57;100.00;97288.41;5039435;28;20045;-72
2024/01/26 02:55:41;;;;;;;0.20;0.20;;;;;;;6.58;100.00;97284.72;5038170;28;20072;-75
2024/01/26 02:58:27;;;;;;;0.15;0.15;;;;;;;6.57;100.00;97285.75;5040111;28;20048;-74
2024/01/26 03:01:13;;;;;;;0.22;0.22;;;;;;;6.55;100.00;97275.31;5032794;28;20037;-74
2024/01/26 03:04:01;;;;;;;0.20;0.20;;;;;;;6.52;100.00;97282.88;5025791;28;20087;-73
2024/01/26 03:06:47;;;;;;;0.20;0.20;;;;;;;6.50;100.00;97280.41;5036021;28;20044;-76
2024/01/26 03:09:33;;;;;;;0.17;0.17;;;;;;;6.64;100.00;97278.59;5036265;28;20049;-75
2024/01/26 03:12:19;;;;;;;0.20;0.20;;;;;;;6.56;100.00;97273.47;5037589;28;20037;-74
2024/01/26 03:15:06;;;;;;;0.30;0.30;;;;;;;6.59;100.00;97262.41;5038171;28;20052;-76
2024/01/26 03:17:51;;;;;;;0.20;0.20;;;;;;;6.50;100.00;97264.47;5037956;28;20510;-73
2024/01/26 03:20:37;;;;;;;0.10;0.10;;;;;;;6.57;100.00;97264.47;5040479;28;20536;-73
2024/01/26 03:23:23;;;;;;;0.10;0.10;;;;;;;6.54;100.00;97255.06;5040182;28;20053;-74
2024/01/26 03:26:09;;;;;;;0.20;0.20;;;;;;;6.62;100.00;97259.38;5034932;28;20041;-75
2024/01/26 03:28:55;;;;;;;0.20;0.20;;;;;;;6.68;100.00;97255.88;5038907;28;20055;-75
2024/01/26 03:31:40;;;;;;;0.13;0.13;;;;;;;6.58;100.00;97258.94;5039743;28;20047;-75
2024/01/26 03:34:26;;;;;;;0.10;0.10;;;;;;;6.67;100.00;97257.72;5035443;28;20048;-73
2024/01/26 03:37:12;;;;;;;0.20;0.20;;;;;;;6.61;100.00;97250.53;5033530;28;20097;-74
2024/01/26 03:39:58;;;;;;;0.20;0.20;;;;;;;6.73;100.00;97255.28;5035846;28;20042;-72
2024/01/26 03:42:44;;;;;;;0.20;0.20;;;;;;;6.69;100.00;97254.84;5034890;28;20068;-73
2024/01/26 03:45:30;;;;;;;0.20;0.20;;;;;;;6.63;100.00;97261.00;5035704;28;20048;-75
2024/01/26 03:48:16;;;;;;;0.30;0.30;;;;;;;6.55;100.00;97255.88;5038006;28;20072;-73
2024/01/26 03:51:02;;;;;;;0.20;0.20;;;;;;;6.57;100.00;97264.47;5039243;28;20647;-75
2024/01/26 03:53:48;;;;;;;0.17;0.17;;;;;;;6.59;100.00;97265.91;5036318;28;20044;-75
2024/01/26 03:56:34;;;;;;;0.20;0.20;;;;;;;6.66;100.00;97257.94;5037567;28;20041;-75
2024/01/26 03:59:20;;;;;;;0.20;0.20;;;;;;;6.60;100.00;97261.41;5038316;28;20766;-75
2024/01/26 04:02:06;;;;;;;0.20;0.20;;;;;;;6.57;100.00;97267.94;5038355;28;20037;-75
2024/01/26 04:04:52;;;;;;;0.10;0.10;;;;;;;6.59;100.00;97270.41;5034062;28;20067;-76
2024/01/26 04:07:37;;;;;;;0.30;0.30;;;;;;;6.63;100.00;97269.00;5037468;28;20099;-73
2024/01/26 04:10:23;;;;;;;0.20;0.20;;;;;;;6.67;100.00;97270.19;5035292;28;20593;-73
2024/01/26 04:13:12;;;;;;;0.20;0.20;;;;;;;6.68;100.00;97274.50;5034287;28;20049;-73
2024/01/26 04:15:57;;;;;;;0.20;0.20;;;;;;;6.72;100.00;97257.13;5036866;28;20049;-73
2024/01/26 04:18:43;;;;;;;0.20;0.20;;;;;;;6.62;100.00;97249.56;5036936;28;20055;-73
2024/01/26 04:21:29;;;;;;;0.20;0.20;;;;;;;6.68;100.00;97247.91;5022563;28;20513;-73
2024/01/26 04:24:15;;;;;;;0.20;0.20;;;;;;;6.57;100.00;97267.13;5034619;28;20103;-76
2024/01/26 04:27:01;;;;;;;0.10;0.10;;;;;;;6.61;100.00;97266.50;5037057;28;20292;-73
2024/01/26 04:29:48;;;;;;;0.20;0.20;;;;;;;6.74;100.00;97265.69;5036997;28;20049;-73
2024/01/26 04:32:34;;;;;;;0.20;0.20;;;;;;;6.74;100.00;97256.91;5028730;28;20300;-76
2024/01/26 04:35:20;;;;;;;0.20;0.20;;;;;;;6.76;100.00;97239.72;5033437;28;20053;-76
2024/01/26 04:38:07;;;;;;;0.20;0.20;;;;;;;6.77;100.00;97246.69;5038121;28;20051;-76
2024/01/26 04:40:53;;;;;;;0.20;0.20;;;;;;;6.73;100.00;97240.13;5034632;28;20469;-75
2024/01/26 04:43:40;;;;;;;0.15;0.15;;;;;;;6.71;100.00;97234.22;4991364;28;20118;-76
2024/01/26 04:46:26;;;;;;;0.20;0.20;;;;;;;6.69;100.00;97233.56;5019517;28;20535;-75
2024/01/26 04:49:12;;;;;;;0.10;0.10;;;;;;;6.68;100.00;97231.94;5036410;28;20041;-74
2024/01/26 04:51:58;;;;;;;0.20;0.20;;;;;;;6.60;100.00;97230.31;5035649;28;20052;-73
2024/01/26 04:54:46;;;;;;;0.10;0.10;;;;;;;6.64;100.00;97225.41;5035591;28;20082;-75
2024/01/26 04:57:32;;;;;;;0.15;0.15;;;;;;;6.66;100.00;97218.03;5040898;28;20541;-75
2024/01/26 05:00:18;;;;;;;0.22;0.22;;;;;;;6.69;100.00;97213.13;5034264;28;20142;-74
2024/01/26 05:03:04;;;;;;;0.28;0.28;;;;;;;6.67;100.00;97209.03;5038331;28;20091;-75
2024/01/26 05:05:50;;;;;;;0.20;0.20;;;;;;;6.73;100.00;97204.72;5037994;28;20726;-72
2024/01/26 05:08:37;;;;;;;0.20;0.20;;;;;;;6.68;100.00;97194.69;5019066;28;20116;-73
2024/01/26 05:11:23;;;;;;;0.20;0.20;;;;;;;6.69;100.00;97206.97;5008148;28;20770;-74
2024/01/26 05:14:12;;;;;;;0.20;0.20;;;;;;;6.73;100.00;97207.41;4986758;28;20792;-76
2024/01/26 05:16:58;;;;;;;0.20;0.20;;;;;;;6.68;100.00;97205.34;5038774;28;20200;-74
2024/01/26 05:19:44;;;;;;;0.10;0.10;;;;;;;6.74;100.00;97188.56;5013715;28;20135;-73
2024/01/26 05:22:30;;;;;;;0.10;0.10;;;;;;;6.75;100.00;97190.19;5039469;28;20048;-75
2024/01/26 05:25:16;;;;;;;0.20;0.20;;;;;;;6.76;100.00;97193.66;5037105;28;20123;-74
2024/01/26 05:28:01;;;;;;;0.20;0.20;;;;;;;6.73;100.00;97197.56;5039487;28;20048;-74
2024/01/26 05:30:47;;;;;;;0.20;0.20;;;;;;;6.79;100.00;97196.75;5035859;28;20506;-73
2024/01/26 05:33:34;;;;;;;0.20;0.20;;;;;;;6.67;100.00;97198.38;5034928;28;20429;-73
2024/01/26 05:36:20;;;;;;;0.20;0.20;;;;;;;6.76;100.00;97202.47;5036366;28;20048;-76
2024/01/26 05:39:05;;;;;;;0.20;0.20;;;;;;;6.73;100.00;97196.75;5038075;28;20124;-72
2024/01/26 05:41:51;;;;;;;0.20;0.20;;;;;;;6.76;100.00;97201.66;5032855;28;20072;-75
2024/01/26 05:44:37;;;;;;;0.20;0.20;;;;;;;6.71;100.00;97194.31;5036237;28;20033;-76
2024/01/26 05:47:23;;;;;;;0.20;0.20;;;;;;;6.77;100.00;97189.97;5034338;28;20544;-76
2024/01/26 05:50:09;;;;;;;0.10;0.10;;;;;;;6.75;100.00;97198.19;5035106;28;20244;-73
2024/01/26 05:52:55;;;;;;;0.20;0.20;;;;;;;6.66;100.00;97199.41;5035844;28;20363;-73
2024/01/26 05:55:41;;;;;;;0.20;0.20;;;;;;;6.62;100.00;97192.88;5036846;28;20432;-73
2024/01/26 05:58:29;;;;;;;0.20;0.20;;;;;;;6.63;100.00;97183.88;5033763;28;20429;-74
2024/01/26 06:01:15;;;;;;;0.20;0.20;;;;;;;6.66;100.00;97192.25;5034352;28;20036;-74
2024/01/26 06:04:01;;;;;;;0.20;0.20;;;;;;;6.68;100.00;97200.03;5036257;28;20052;-74
2024/01/26 06:06:47;;;;;;;0.20;0.20;;;;;;;6.71;100.00;97194.31;5019748;28;20056;-72
2024/01/26 06:09:33;;;;;;;0.20;0.20;;;;;;;6.67;100.00;97193.88;5036048;28;20530;-73
2024/01/26 06:12:19;;;;;;;0.17;0.17;;;;;;;6.61;100.00;97196.53;5035727;28;20049;-73
2024/01/26 06:15:05;;;;;;;0.10;0.10;;;;;;;6.69;100.00;97191.00;5036170;28;20324;-73
2024/01/26 06:17:51;;;;;;;0.10;0.10;;;;;;;6.64;100.00;97169.56;5038326;28;20882;-73
2024/01/26 06:20:37;;;;;;;0.20;0.20;;;;;;;6.68;100.00;97165.44;5037506;28;20041;-74
2024/01/26 06:23:23;;;;;;;0.20;0.20;;;;;;;6.73;100.00;97163.00;5034826;28;20057;-73
2024/01/26 06:26:09;;;;;;;0.20;0.20;;;;;;;6.70;100.00;97158.09;5034332;28;20041;-74
2024/01/26 06:28:55;;;;;;;0.20;0.20;;;;;;;6.73;100.00;97154.19;5034182;28;20053;-73
2024/01/26 06:31:41;;;;;;;0.30;0.30;;;;;;;6.72;100.00;97176.50;5023010;28;20419;-74
2024/01/26 06:34:27;;;;;;;0.20;0.20;;;;;;;6.75;100.00;97166.25;5019184;28;20032;-74
2024/01/26 06:37:13;;;;;;;0.20;0.20;;;;;;;6.68;100.00;97162.78;5036720;28;20044;-74
2024/01/26 06:39:59;;;;;;;0.20;0.20;;;;;;;6.63;100.00;97155.44;5036711;28;20293;-73
2024/01/26 06:42:44;;;;;;;0.20;0.20;;;;;;;6.66;100.00;97170.97;5034068;28;20046;-74
2024/01/26 06:45:31;;;;;;;0.20;0.20;;;;;;;6.67;100.00;97158.50;5038570;28;20036;-74
2024/01/26 06:48:17;;;;;;;0.20;0.20;;;;;;;6.66;100.00;97144.38;5036271;28;20047;-76
2024/01/26 06:51:03;;;;;;;0.20;0.20;;;;;;;6.71;100.00;97149.09;5010339;28;20420;-74
2024/01/26 06:53:49;;;;;;;0.20;0.20;;;;;;;6.76;100.00;97148.44;5024424;28;20302;-73
2024/01/26 06:56:35;;;;;;;0.20;0.20;;;;;;;6.72;100.00;97155.22;5034251;28;20126;-76
2024/01/26 06:59:20;;;;;;;0.20;0.20;;;;;;;6.74;100.00;97140.69;5036810;28;20406;-75
2024/01/26 07:02:06;;;;;;;0.20;0.20;;;;;;;6.76;100.00;97143.94;5019498;28;20041;-73
2024/01/26 07:04:52;;;;;;;0.20;0.20;;;;;;;6.78;100.00;97144.56;5030838;28;20366;-75
2024/01/26 07:07:38;;;;;;;0.20;0.20;;;;;;;6.77;100.00;97124.31;5015443;28;20084;-72
2024/01/26 07:10:24;;;;;;;0.20;0.20;;;;;;;6.75;100.00;97113.06;5013621;28;20032;-74
2024/01/26 07:13:10;;;;;;;0.30;0.30;;;;;;;6.79;100.00;97108.16;5017152;28;20053;-73
2024/01/26 07:15:55;;;;;;;0.20;0.20;;;;;;;6.80;100.00;97107.94;5014377;28;20037;-75
2024/01/26 07:18:41;;;;;;;0.20;0.20;;;;;;;6.75;100.00;97106.91;5014674;28;20049;-75
2024/01/26 07:21:27;;;;;;;0.20;0.20;;;;;;;6.79;100.00;97101.00;5016758;28;20045;-76
2024/01/26 07:24:13;;;;;;;0.20;0.20;;;;;;;6.77;100.00;97086.25;5012724;28;20503;-73
2024/01/26 07:26:59;;;;;;;0.10;0.10;;;;;;;6.78;100.00;97096.69;5018078;28;20040;-74
2024/01/26 07:29:47;;;;;;;0.13;0.13;;;;;;;6.73;100.00;97112.47;4991494;28;20121;-74
2024/01/26 07:32:34;;;;;;;0.20;0.20;;;;;;;6.77;100.00;97087.09;4989631;28;20060;-73
2024/01/26 07:35:19;;;;;;;0.20;0.20;;;;;;;6.80;100.00;97075.19;5008752;28;20049;-74
2024/01/26 07:38:05;;;;;;;0.20;0.20;;;;;;;6.79;100.00;97084.22;5011166;28;20137;-75
2024/01/26 07:40:51;;;;;;;0.20;0.20;;;;;;;6.75;100.00;97067.84;5009791;28;20049;-72
2024/01/26 07:43:37;;;;;;;0.20;0.20;;;;;;;6.79;100.00;97069.06;5009332;28;20116;-76
2024/01/26 07:46:23;;;;;;;0.20;0.20;;;;;;;6.78;100.00;97074.59;5007342;28;20529;-74
2024/01/26 07:49:09;;;;;;;0.20;0.20;;;;;;;6.77;100.00;97067.63;5007770;28;20042;-73
2024/01/26 07:51:55;;;;;;;0.20;0.20;;;;;;;6.77;100.00;97073.78;5007872;28;20038;-74
2024/01/26 07:54:40;;;;;;;0.20;0.20;;;;;;;6.82;100.00;97078.47;5021434;28;20046;-74
2024/01/26 07:57:26;;;;;;;0.20;0.20;;;;;;;6.91;100.00;97086.00;5008868;28;20410;-72
2024/01/26 08:00:13;;;;;;;0.20;0.20;;;;;;;6.90;100.00;97084.38;5007357;28;20041;-74
2024/01/26 08:02:59;;;;;;;0.15;0.15;;;;;;;6.89;100.00;97079.25;5038282;28;20051;-74
2024/01/26 08:05:45;;;;;;;0.20;0.20;;;;;;;6.89;100.00;97071.28;5040083;28;20604;-76
2024/01/26 08:08:31;;;;;;;0.20;0.20;;;;;;;6.84;100.00;97066.56;5037487;28;20148;-72
2024/01/26 08:11:19;;;;;;;0.20;0.20;;;;;;;6.86;100.00;97071.72;5005171;28;20598;-73
2024/01/26 08:14:05;;;;;;;0.20;0.20;;;;;;;6.75;100.00;97051.88;5038478;28;20049;-75
2024/01/26 08:16:51;;;;;;;0.20;0.20;;;;;;;6.78;100.00;97061.31;5036969;28;20040;-76
2024/01/26 08:19:37;;;;;;;0.20;0.20;;;;;;;6.74;100.00;97052.91;5040727;28;20045;-74
2024/01/26 08:22:25;;;;;;;0.20;0.20;;;;;;;6.80;100.00;97046.75;5038292;28;21032;-74
2024/01/26 08:25:11;;;;;;;0.30;0.30;;;;;;;6.80;100.00;97056.59;5033305;28;20041;-74
2024/01/26 08:27:57;;;;;;;0.20;0.20;;;;;;;6.78;100.00;97053.31;5036874;28;20647;-73
2024/01/26 08:30:43;;;;;;;0.20;0.20;;;;;;;6.73;100.00;97051.28;5031669;28;20041;-72
2024/01/26 08:33:29;;;;;;;0.20;0.20;;;;;;;6.61;100.00;97056.41;5050897;28;20093;-75
2024/01/26 08:36:15;;;;;;;0.10;0.10;;;;;;;6.68;100.00;97054.56;5050826;28;20171;-76
2024/01/26 08:39:01;;;;;;;0.20;0.20;;;;;;;6.67;100.00;97044.13;5038332;28;20390;-73
2024/01/26 08:41:48;;;;;;;0.20;0.20;;;;;;;6.73;100.00;97042.47;5036437;28;20071;-74
2024/01/26 08:44:34;;;;;;;0.17;0.17;;;;;;;6.72;100.00;97046.19;5033758;28;20495;-73
2024/01/26 08:47:23;;;;;;;0.13;0.13;;;;;;;6.73;100.00;97042.47;5039041;28;20561;-74
2024/01/26 08:50:09;;;;;;;0.20;0.20;;;;;;;6.78;100.00;97046.16;5016039;28;20038;-73
2024/01/26 08:52:55;;;;;;;0.20;0.20;;;;;;;6.81;100.00;97040.41;5018876;28;20052;-75
2024/01/26 08:59:30;;;;;;;0.20;0.20;;;;;;;6.82;100.00;97042.03;5119707;23;20406;-73
2024/01/26 09:02:15;;;;;;;0.20;0.20;;;;;;;6.82;100.00;97050.00;4937347;28;20532;-75
2024/01/26 09:05:01;;;;;;;0.20;0.20;;;;;;;6.81;100.00;97050.22;4966054;28;20555;-73
2024/01/26 09:07:47;;;;;;;0.20;0.20;;;;;;;6.86;100.00;97056.56;4955144;28;20042;-73
2024/01/26 09:10:33;;;;;;;0.10;0.10;;;;;;;6.90;100.00;97055.09;4962708;28;20039;-75
2024/01/26 09:13:20;;;;;;;0.20;0.20;;;;;;;6.89;100.00;97053.47;4959334;28;20393;-72
2024/01/26 09:16:11;;;;;;;0.20;0.20;;;;;;;6.84;100.00;97047.94;4952673;28;20112;-74
2024/01/26 09:18:57;;;;;;;0.20;0.20;;;;;;;6.86;100.00;97043.25;4971421;28;20034;-74
2024/01/26 09:21:43;;;;;;;0.20;0.20;;;;;;;6.99;100.00;97050.34;4969253;28;20898;-73
2024/01/26 09:24:29;;;;;;;0.20;0.20;;;;;;;6.90;100.00;97043.66;4969821;28;20078;-73
2024/01/26 09:27:15;;;;;;;0.30;0.30;;;;;;;6.93;100.00;97044.06;4974716;28;20054;-73
2024/01/26 09:30:01;;;;;;;0.20;0.20;;;;;;;6.97;100.00;97039.94;4972847;28;20137;-73
2024/01/26 09:32:47;;;;;;;0.20;0.20;;;;;;;6.90;100.00;97047.13;4969614;28;20054;-73
2024/01/26 09:35:33;;;;;;;0.20;0.20;;;;;;;6.98;100.00;97030.09;4991513;28;20504;-74
2024/01/26 09:38:19;;;;;;;0.20;0.20;;;;;;;6.98;100.00;97020.28;4990774;28;20050;-74
2024/01/26 09:41:05;;;;;;;0.20;0.20;;;;;;;6.97;100.00;97031.13;4979899;28;20050;-73
2024/01/26 09:43:51;;;;;;;0.20;0.20;;;;;;;7.02;100.00;97019.88;4989528;28;20129;-73
2024/01/26 09:46:37;;;;;;;0.20;0.20;;;;;;;7.09;100.00;97041.94;4987031;28;20038;-74
2024/01/26 09:49:27;;;;;;;0.20;0.20;;;;;;;7.26;100.00;97053.72;4965268;28;20390;-76
2024/01/26 09:52:16;;;;;;;0.20;0.20;;;;;;;7.16;100.00;97048.03;4973081;28;20042;-73
2024/01/26 09:55:02;;;;;;;0.13;0.13;;;;;;;7.21;100.00;97042.88;4987141;28;20045;-74
2024/01/26 09:57:49;;;;;;;0.17;0.17;;;;;;;7.23;100.00;97035.50;4983944;28;20053;-74
2024/01/26 10:00:35;;;;;;;0.10;0.10;;;;;;;7.28;100.00;97034.88;4983850;28;20396;-75
2024/01/26 10:03:25;;;;;;;0.10;0.10;;;;;;;7.21;100.00;97045.56;4968386;28;20701;-75
2024/01/26 10:06:10;;;;;;;0.20;0.20;;;;;;;7.31;100.00;97024.59;4968514;28;20674;-74
2024/01/26 10:08:59;;;;;;;0.30;0.30;;;;;;;7.41;100.00;97035.63;4969877;28;20038;-75
2024/01/26 10:11:45;;;;;;;0.20;0.20;;;;;;;7.40;100.00;97038.50;4959335;28;20129;-75
2024/01/26 10:14:31;;;;;;;0.15;0.15;;;;;;;7.37;100.00;97034.41;4967693;28;20133;-75
2024/01/26 10:17:18;;;;;;;0.20;0.20;;;;;;;7.33;100.00;97046.53;4966788;28;20438;-74
2024/01/26 10:20:14;;;;;;;0.20;0.20;;;;;;;7.31;100.00;97032.59;4967919;28;20251;-75
2024/01/26 10:23:00;;;;;;;0.20;0.20;;;;;;;7.36;100.00;97051.41;4968399;28;20057;-75
2024/01/26 10:25:47;;;;;;;0.13;0.13;;;;;;;7.39;100.00;97056.31;4964961;28;20171;-72
2024/01/26 10:28:33;;;;;;;0.20;0.20;;;;;;;7.43;100.00;97043.38;4966117;28;20065;-74
2024/01/26 10:31:19;;;;;;;0.20;0.20;;;;;;;7.40;100.00;97033.19;4966397;28;20479;-76
2024/01/26 10:34:05;;;;;;;0.20;0.20;;;;;;;7.48;100.00;97043.56;4969716;28;20144;-74
2024/01/26 10:36:54;;;;;;;0.10;0.10;;;;;;;7.42;100.00;97018.59;4965854;28;21009;-75
2024/01/26 10:39:43;;;;;;;0.20;0.20;;;;;;;7.50;100.00;97028.19;4967703;28;20074;-75
2024/01/26 10:42:30;;;;;;;0.20;0.20;;;;;;;7.57;100.00;97022.81;4967544;28;20074;-73
2024/01/26 10:45:16;;;;;;;0.20;0.20;;;;;;;7.61;100.00;97018.69;4970115;28;20129;-74
2024/01/26 10:48:02;;;;;;;0.20;0.20;;;;;;;7.65;100.00;97015.38;4939512;28;20060;-74
2024/01/26 10:50:48;;;;;;;0.20;0.20;;;;;;;7.66;100.00;97014.34;4969370;28;20192;-74
2024/01/26 10:53:34;;;;;;;0.20;0.20;;;;;;;7.63;100.00;96995.34;4966748;28;20133;-75
2024/01/26 10:56:20;;;;;;;0.17;0.17;;;;;;;7.71;100.00;96989.72;4968713;28;20050;-73
2024/01/26 10:59:09;;;;;;;0.20;0.20;;;;;;;7.68;100.00;96993.63;4970315;28;20086;-75
2024/01/26 11:01:55;;;;;;;0.20;0.20;;;;;;;7.84;100.00;96994.94;4968243;28;20042;-74
2024/01/26 11:04:43;;;;;;;0.20;0.20;;;;;;;7.93;100.00;96982.97;4989800;28;20042;-73
2024/01/26 11:07:34;;;;;;;0.20;0.20;;;;;;;7.97;100.00;96981.50;4979740;28;20042;-75
2024/01/26 11:10:22;;;;;;;0.20;0.20;;;;;;;7.91;100.00;96986.88;4991151;28;20222;-75
2024/01/26 11:13:09;;;;;;;0.20;0.20;;;;;;;7.91;100.00;96976.22;4990306;28;20056;-74
2024/01/26 11:16:07;;;;;;;0.10;0.10;;;;;;;8.05;100.00;96975.88;4992967;28;20038;-74
2024/01/26 11:18:59;;;;;;;0.20;0.20;;;;;;;8.19;100.00;96951.78;4994198;28;20137;-74
2024/01/26 11:21:46;;;;;;;0.20;0.20;;;;;;;8.31;100.00;96961.47;4992339;28;20045;-74
2024/01/26 11:24:34;;;;;;;0.20;0.20;;;;;;;8.21;100.00;96985.16;4992811;28;20057;-73
2024/01/26 11:27:20;;;;;;;0.20;0.20;;;;;;;8.14;100.00;96960.44;4993057;28;20583;-75
2024/01/26 11:30:20;;;;;;;0.10;0.10;;;;;;;8.12;100.00;96953.69;4991049;28;20104;-74
2024/01/26 11:33:23;;;;;;;0.20;0.20;;;;;;;8.09;100.00;96946.94;4978606;28;20416;-73
2024/01/26 11:36:11;;;;;;;0.22;0.22;;;;;;;8.15;100.00;96962.06;4988637;28;20551;-73
2024/01/26 11:38:58;;;;;;;0.10;0.10;;;;;;;8.23;100.00;96947.63;4988896;28;20451;-73
2024/01/26 11:41:45;;;;;;;0.20;0.20;;;;;;;8.30;100.00;96949.19;4970855;28;20050;-74
2024/01/26 11:44:36;;;;;;;0.20;0.20;;;;;;;8.31;100.00;96950.00;4989963;28;20073;-73
2024/01/26 11:47:22;;;;;;;0.20;0.20;;;;;;;8.26;100.00;96952.53;4988827;28;20941;-75
2024/01/26 11:50:11;;;;;;;0.20;0.20;;;;;;;8.23;100.00;96937.75;4990992;28;20558;-75
2024/01/26 11:52:57;;;;;;;0.10;0.10;;;;;;;8.14;100.00;96935.63;4991151;28;20049;-75
2024/01/26 11:55:45;;;;;;;0.20;0.20;;;;;;;8.06;100.00;96948.19;4978496;28;20039;-74
2024/01/26 11:58:31;;;;;;;0.20;0.20;;;;;;;8.06;100.00;96961.53;4993569;28;20147;-75
2024/01/26 12:01:16;;;;;;;0.28;0.28;;;;;;;8.02;100.00;96941.69;4989640;28;20046;-74
2024/01/26 12:04:05;;;;;;;0.20;0.20;;;;;;;8.00;100.00;96956.25;4990134;28;20045;-76
2024/01/26 12:06:52;;;;;;;0.20;0.20;;;;;;;7.95;100.00;96951.59;4978885;28;20042;-73
2024/01/26 12:09:38;;;;;;;0.20;0.20;;;;;;;7.93;100.00;96927.00;4987566;28;20125;-75
2024/01/26 12:12:24;;;;;;;0.17;0.17;;;;;;;8.03;100.00;96945.16;4989095;28;20033;-77
2024/01/26 12:15:10;;;;;;;0.20;0.20;;;;;;;7.98;100.00;96953.00;4988213;28;20586;-75
2024/01/26 12:18:00;;;;;;;0.20;0.20;;;;;;;7.89;100.00;96951.66;4989208;28;20039;-73
2024/01/26 12:20:52;;;;;;;0.20;0.20;;;;;;;7.79;100.00;97006.25;4979392;28;20103;-73
2024/01/26 12:23:38;;;;;;;0.20;0.20;;;;;;;7.63;100.00;97000.66;4988640;28;20050;-74
2024/01/26 12:26:25;;;;;;;0.20;0.20;;;;;;;7.46;100.00;97016.31;4989253;28;20042;-74
2024/01/26 12:29:11;;;;;;;0.20;0.20;;;;;;;7.21;100.00;97085.47;4987722;28;20520;-72
2024/01/26 12:32:08;;;;;;;0.20;0.20;;;;;;;7.01;100.00;97058.97;4989419;28;20038;-75
2024/01/26 12:34:53;;;;;;;0.20;0.20;;;;;;;6.76;100.00;97053.50;4991436;28;20046;-74
2024/01/26 12:37:39;;;;;;;0.20;0.20;;;;;;;6.61;100.00;97082.19;4991184;28;20093;-73
2024/01/26 12:40:27;;;;;;;0.10;0.10;;;;;;;6.54;100.00;97097.38;4991596;28;20430;-75
2024/01/26 12:43:13;;;;;;;0.20;0.20;;;;;;;6.59;100.00;97103.69;4988494;28;20507;-74
2024/01/26 12:45:59;;;;;;;0.20;0.20;;;;;;;6.46;100.00;97097.56;4989036;28;20046;-73
2024/01/26 12:48:45;;;;;;;0.20;0.20;;;;;;;6.45;100.00;97090.59;4988931;28;20104;-73
2024/01/26 12:51:31;;;;;;;0.20;0.20;;;;;;;6.70;100.00;97102.25;4986819;28;20038;-74
2024/01/26 12:54:18;;;;;;;0.20;0.20;;;;;;;6.64;100.00;97124.34;4989337;28;20053;-73
2024/01/26 12:57:04;;;;;;;0.20;0.20;;;;;;;6.53;100.00;97114.31;4989263;28;20223;-72
2024/01/26 12:59:50;;;;;;;0.20;0.20;;;;;;;6.50;100.00;97117.41;4975067;28;20425;-75
2024/01/26 13:02:36;;;;;;;0.20;0.20;;;;;;;6.45;100.00;97114.53;4986586;28;20034;-73
2024/01/26 13:05:21;;;;;;;0.20;0.20;;;;;;;6.49;100.00;97123.75;4988667;28;20138;-73
2024/01/26 13:08:07;;;;;;;0.20;0.20;;;;;;;6.66;100.00;97128.41;4990303;28;20129;-73